Rainbow Heights (1233, RB1) Station Data

Red Flag Warning: No
Fire Weather Zone: 250
SDGE Region: North East
Lat/Lon: 33.414/-117.126

Observations

Time Wind Speed/Gust Temp(F) RH Fuel Moist Fuel Temp(F) Dewpt(F) Tmax(F) Tmin(F) Accum Precip 10-min Precip SL Press(mb)
5/24 8:20am 242 3 G 7 58° 95% - - 57° 69.6° 53.9° - - -
5/24 8:10am 246 2 G 6 57° 96% - - 56° 69.6° 53.9° - - -
5/24 8:00am 298 0 G 2 55° 96% - - 54° 69.6° 53.9° - - -
5/24 7:50am 133 3 G 5 54° 96% - - 53° 69.6° 54° - - -
5/24 7:40am 124 3 G 5 55° 95% - - 53° 69.6° 54° - - -
5/24 7:30am 160 3 G 8 55° 95% - - 53° 69.6° 54.2° - - -
5/24 7:20am 226 4 G 10 55° 90% - - 52° 69.6° 54.4° - - -
5/24 7:10am 217 3 G 11 61° 77% - - 53° 69.6° 56.4° - - -
5/24 7:00am 343 2 G 7 58° 81% - - 52° 69.6° 56.4° - - -
5/24 6:50am 317 1 G 3 62° 73% - - 53° 69.6° 58.6° - - -
5/24 6:40am 124 1 G 3 66° 60% - - 51° 69.6° 58.6° - - -
5/24 6:30am 266 1 G 4 66° 59% - - 52° 69.6° 58.6° - - -
5/24 6:20am 251 2 G 5 67° 57% - - 51° 69.6° 58.6° - - -
5/24 6:10am 273 4 G 7 68° 52% - - 50° 69.6° 58.6° - - -
5/24 6:00am 360 2 G 4 67° 53% - - 50° 69.6° 58.6° - - -
5/24 5:50am 357 3 G 6 67° 53% - - 50° 69.6° 58.6° - - -
5/24 5:40am 26 2 G 3 66° 58% - - 51° 69.6° 58.6° - - -
5/24 5:30am 28 1 G 3 64° 62% - - 51° 69.6° 58.6° - - -
5/24 5:20am 53 1 G 2 65° 61% - - 51° 69.6° 58.6° - - -
5/24 5:10am 278 1 G 3 65° 61% - - 51° 69.6° 58.6° - - -
5/24 5:00am 23 2 G 4 64° 63% - - 51° 69.6° 58.6° - - -
5/24 4:50am 11 1 G 2 63° 69% - - 52° 69.6° 58.6° - - -
5/24 4:40am 358 1 G 1 61° 76% - - 54° 69.6° 58.6° - - -
5/24 4:30am 12 0 G 1 61° 77% - - 54° 69.6° 58.6° - - -
5/24 4:20am 247 0 G 2 60° 79% - - 54° 69.6° 58.6° - - -
5/24 4:10am 43 1 G 2 60° 77% - - 53° 69.6° 58.6° - - -
5/24 4:00am 264 2 G 3 63° 68% - - 52° 69.6° 62° - - -
5/24 3:50am 124 1 G 3 65° 63% - - 51° 69.6° 62.8° - - -
5/24 3:40am 165 0 G 1 66° 60% - - 51° 69.6° 63.4° - - -
5/24 3:30am 323 0 G 2 65° 62% - - 52° 69.6° 63.4° - - -
5/24 3:20am 27 1 G 2 65° 61% - - 51° 69.6° 63.4° - - -
5/24 3:10am 23 2 G 3 66° 59% - - 51° 69.6° 63.4° - - -
5/24 3:00am 15 2 G 3 67° 57% - - 51° 69.6° 63.4° - - -
5/24 2:50am 339 2 G 5 69° 52% - - 51° 69.6° 63.4° - - -
5/24 2:40am 332 4 G 6 68° 53% - - 51° 69.4° 63.4° - - -
5/24 2:30am 9 2 G 5 67° 56% - - 51° 69.4° 63.4° - - -
5/24 2:20am 145 0 G 1 67° 53% - - 49° 69.4° 63.4° - - -
5/24 2:10am 351 2 G 4 68° 49% - - 48° 69.4° 63.4° - - -
5/24 2:00am 337 2 G 5 69° 48% - - 48° 69.4° 63.4° - - -
5/24 1:50am 347 1 G 3 68° 55% - - 51° 68.7° 63.4° - - -
5/24 1:40am 5 0 G 2 67° 62% - - 53° 68.5° 63.4° - - -
5/24 1:30am 1 1 G 2 67° 62% - - 53° 68.5° 63.4° - - -
5/24 1:20am 346 1 G 2 66° 59% - - 51° 68.5° 63.4° - - -
5/24 1:10am 220 0 G 1 65° 60% - - 51° 68.5° 63.4° - - -
5/24 1:00am 300 0 G 2 64° 66% - - 53° 68.5° 63.4° - - -
5/24 12:50am 0 0 G 0 64° 66% - - 53° 68.5° 63.4° - - -
5/24 12:40am 0 0 G 0 64° 62% - - 51° 68.5° 63.4° - - -
5/24 12:30am 57 1 G 2 65° 60% - - 51° 68.5° 63.8° - - -
5/24 12:20am 178 1 G 2 67° 51% - - 49° 68.5° 66.3° - - -
5/24 12:10am 226 1 G 2 68° 52% - - 50° 68.4° 67° - - -
5/24 12:00am 229 2 G 3 67° 53% - - 50° 86.8° 64.6° - - -
5/23 11:50pm 196 2 G 4 67° 53% - - 50° 86.8° 64.6° - - -
5/23 11:40pm 199 1 G 3 67° 54% - - 50° 86.8° 64.6° - - -
5/23 11:30pm 137 0 G 1 67° 56% - - 51° 86.8° 64.6° - - -
5/23 11:20pm 188 1 G 3 67° 63% - - 54° 86.8° 64.6° - - -
5/23 11:10pm 222 3 G 4 67° 59% - - 52° 86.8° 64.6° - - -
5/23 11:00pm 203 2 G 4 67° 64% - - 54° 86.8° 64.6° - - -
5/23 10:50pm 160 1 G 2 67° 65% - - 55° 86.8° 64.6° - - -
5/23 10:40pm 157 2 G 2 68° 66% - - 56° 86.8° 64.6° - - -
5/23 10:30pm 155 1 G 2 68° 65% - - 56° 86.8° 64.6° - - -
5/23 10:20pm 159 2 G 3 68° 65% - - 56° 86.8° 64.6° - - -
5/23 10:10pm 161 2 G 3 68° 64% - - 56° 86.8° 64.6° - - -
5/23 10:00pm 151 2 G 3 68° 64% - - 56° 86.8° 64.6° - - -
5/23 9:50pm 124 1 G 2 68° 65% - - 56° 86.8° 64.6° - - -
5/23 9:40pm 102 1 G 1 68° 65% - - 56° 86.8° 64.6° - - -
5/23 9:30pm 129 2 G 3 68° 66% - - 56° 86.8° 64.6° - - -
5/23 9:20pm 154 2 G 3 68° 66% - - 56° 86.8° 64.6° - - -
5/23 9:10pm 162 3 G 4 68° 66% - - 56° 86.8° 64.6° - - -
5/23 9:00pm 176 3 G 4 68° 65% - - 56° 86.8° 64.6° - - -
5/23 8:50pm 162 3 G 5 68° 64% - - 56° 86.8° 64.6° - - -
5/23 8:40pm 172 2 G 4 67° 66% - - 56° 86.8° 64.6° - - -
5/23 8:30pm 135 1 G 2 66° 68% - - 55° 86.8° 64.6° - - -
5/23 8:20pm 144 2 G 3 66° 68% - - 55° 86.8° 64.6° - - -
5/23 8:10pm 137 2 G 4 66° 68% - - 55° 86.8° 64.6° - - -
5/23 8:00pm 147 2 G 4 66° 69% - - 56° 86.8° 64.6° - - -
5/23 7:50pm 150 2 G 4 67° 68% - - 56° 86.8° 64.6° - - -
5/23 7:40pm 153 2 G 3 67° 69% - - 57° 86.8° 64.6° - - -
5/23 7:30pm 146 2 G 3 68° 67% - - 57° 86.8° 64.6° - - -
5/23 7:20pm 192 2 G 3 70° 62% - - 56° 86.8° 64.6° - - -
5/23 7:10pm 214 2 G 4 70° 62% - - 56° 86.8° 64.6° - - -
5/23 7:00pm 235 4 G 7 69° 65% - - 57° 86.8° 64.6° - - -
5/23 6:50pm 269 6 G 8 69° 68% - - 58° 86.8° 64.6° - - -
5/23 6:40pm 260 7 G 9 70° 65% - - 58° 86.8° 64.6° - - -
5/23 6:30pm 273 6 G 8 71° 63% - - 58° 86.8° 64.6° - - -
5/23 6:20pm 265 7 G 9 71° 62% - - 58° 86.8° 64.6° - - -
5/23 6:10pm 265 7 G 10 72° 61% - - 58° 86.8° 64.6° - - -
5/23 6:00pm 262 7 G 9 73° 57% - - 58° 86.8° 64.6° - - -
5/23 5:50pm 260 6 G 8 74° 55% - - 57° 86.8° 64.6° - - -
5/23 5:40pm 240 7 G 10 75° 53% - - 57° 86.8° 64.6° - - -
5/23 5:30pm 228 5 G 9 76° 51% - - 56° 86.8° 64.6° - - -
5/23 5:20pm 209 5 G 9 76° 49% - - 56° 86.8° 64.6° - - -
5/23 5:10pm 181 4 G 7 77° 48% - - 56° 86.8° 64.6° - - -
5/23 5:00pm 188 5 G 7 77° 47% - - 55° 86.8° 64.6° - - -
5/23 4:50pm 168 4 G 8 77° 46% - - 55° 86.8° 64.6° - - -
5/23 4:40pm 156 5 G 9 77° 47% - - 55° 86.8° 64.6° - - -
5/23 4:30pm 159 5 G 8 77° 47% - - 55° 86.8° 64.6° - - -
5/23 4:20pm 164 6 G 10 76° 47% - - 54° 86.8° 64.6° - - -
5/23 4:10pm 150 6 G 9 75° 47% - - 54° 86.8° 64.6° - - -
5/23 4:00pm 152 7 G 10 75° 48% - - 54° 86.8° 64.6° - - -
5/23 3:50pm 154 7 G 11 75° 48% - - 54° 86.8° 64.6° - - -
5/23 3:40pm 150 7 G 11 74° 50% - - 54° 86.8° 64.6° - - -
5/23 3:30pm 161 6 G 10 74° 50% - - 54° 86.8° 64.6° - - -
5/23 3:20pm 156 7 G 12 73° 52% - - 55° 86.8° 64.6° - - -
5/23 3:10pm 144 8 G 14 73° 54% - - 56° 86.8° 64.6° - - -
5/23 3:00pm 138 9 G 14 72° 57% - - 56° 86.8° 64.6° - - -
5/23 2:50pm 130 8 G 12 72° 59% - - 57° 86.8° 64.6° - - -
5/23 2:40pm 160 7 G 10 73° 56% - - 56° 86.8° 64.6° - - -
5/23 2:30pm 189 5 G 10 72° 58% - - 57° 86.8° 64.6° - - -
5/23 2:20pm 204 5 G 9 72° 60% - - 57° 86.8° 64.6° - - -
5/23 2:10pm 192 6 G 10 71° 62% - - 58° 86.8° 64.6° - - -
5/23 2:00pm 191 5 G 10 72° 62% - - 58° 86.8° 64.6° - - -
5/23 1:50pm 192 6 G 10 72° 62% - - 58° 86.8° 64.6° - - -
5/23 1:40pm 196 6 G 11 72° 62% - - 58° 86.8° 64.6° - - -
5/23 1:30pm 191 5 G 10 73° 60% - - 58° 86.8° 64.6° - - -
5/23 1:20pm 223 4 G 10 72° 61% - - 58° 86.8° 64.6° - - -
5/23 1:10pm 232 5 G 9 72° 63% - - 58° 86.8° 64.6° - - -
5/23 1:00pm 259 11 G 15 70° 65% - - 58° 86.8° 64.6° - - -
5/23 12:50pm 256 12 G 17 70° 65% - - 58° 86.8° 64.6° - - -
5/23 12:40pm 252 10 G 14 71° 65% - - 58° 86.8° 64.6° - - -
5/23 12:30pm 255 9 G 15 72° 63% - - 58° 86.8° 64.6° - - -
5/23 12:20pm 252 10 G 14 72° 62% - - 59° 86.8° 64.6° - - -
5/23 12:10pm 251 9 G 14 74° 59% - - 59° 86.8° 64.6° - - -
5/23 12:00pm 253 9 G 14 75° 58% - - 59° 86.8° 64.6° - - -
5/23 11:50am 251 10 G 16 77° 54% - - 59° 86.8° 64.6° - - -
5/23 11:40am 248 10 G 14 80° 43% - - 55° 86.8° 64.6° - - -
5/23 11:30am 248 7 G 17 82° 41% - - 56° 86.8° 64.6° - - -
5/23 11:20am 203 6 G 11 84° 35% - - 54° 86.8° 64.6° - - -
5/23 11:10am 149 5 G 9 85° 31% - - 51° 86.8° 64.6° - - -
5/23 11:00am 147 6 G 10 84° 33% - - 51° 84.6° 64.6° - - -
5/23 10:50am 130 5 G 8 83° 32% - - 50° 83.6° 64.6° - - -
5/23 10:40am 130 4 G 6 82° 31% - - 48° 83° 64.6° - - -
5/23 10:30am 134 4 G 7 81° 30% - - 47° 81.6° 64.6° - - -
5/23 10:20am 128 5 G 8 80° 35% - - 50° 80.9° 64.6° - - -
5/23 10:10am 123 4 G 7 79° 39% - - 52° 80.4° 64.6° - - -
5/23 10:00am 132 4 G 6 78° 42% - - 54° 79.6° 64.6° - - -
5/23 9:50am 112 4 G 6 78° 46% - - 56° 79.6° 64.6° - - -
5/23 9:40am 110 4 G 6 79° 43% - - 54° 79.2° 64.6° - - -
5/23 9:30am 81 3 G 5 78° 42% - - 53° 78.9° 64.6° - - -
5/23 9:20am 88 3 G 6 77° 41% - - 52° 78.2° 64.6° - - -
5/23 9:10am 78 4 G 6 77° 42% - - 52° 77.6° 64.6° - - -
5/23 9:00am 90 3 G 5 75° 46% - - 53° 76.2° 64.6° - - -
5/23 8:50am 69 5 G 8 75° 46% - - 52° 75.4° 64.6° - - -
5/23 8:40am 59 6 G 8 74° 44% - - 51° 75.3° 64.6° - - -
5/23 8:30am 63 6 G 9 73° 44% - - 50° 73.7° 64.6° - - -
5/23 8:20am 57 6 G 9 73° 42% - - 48° 73.3° 64.6° - - -
5/23 8:10am 74 4 G 9 71° 45% - - 49° 72.1° 64.6° - - -
5/23 8:00am 63 6 G 11 71° 44% - - 48° 71.8° 64.6° - - -
5/23 7:50am 59 5 G 9 71° 44% - - 48° 71.7° 64.6° - - -
5/23 7:40am 57 6 G 11 71° 46% - - 49° 71.7° 64.6° - - -
5/23 7:30am 59 5 G 8 70° 46% - - 49° 71.5° 64.6° - - -
5/23 7:20am 53 6 G 9 70° 47% - - 49° 71.2° 64.6° - - -
5/23 7:10am 57 6 G 9 70° 48% - - 50° 71° 64.6° - - -
5/23 7:00am 63 6 G 8 70° 50% - - 50° 70.6° 64.6° - - -
5/23 6:50am 48 3 G 6 70° 51% - - 51° 70.5° 64.6° - - -
5/23 6:40am 50 3 G 7 69° 51% - - 50° 70.1° 64.6° - - -
5/23 6:30am 31 4 G 7 68° 51% - - 49° 70.1° 64.6° - - -
5/23 6:20am 28 3 G 7 67° 49% - - 47° 70.1° 64.6° - - -
5/23 6:10am 43 5 G 8 67° 48% - - 47° 70.1° 64.6° - - -
5/23 6:00am 54 3 G 7 67° 47% - - 46° 70.1° 64.6° - - -